sensor_id;sensor_type;location;lat;lon;timestamp;pressure;altitude;pressure_sealevel;temperature;humidity
66164;BME280;52962;51.088;3.096;2022-08-19T00:01:48;101151.59;;;18.44;100.00
66164;BME280;52962;51.088;3.096;2022-08-19T00:04:20;101146.31;;;18.40;100.00
66164;BME280;52962;51.088;3.096;2022-08-19T00:06:50;101146.31;;;18.37;100.00
66164;BME280;52962;51.088;3.096;2022-08-19T00:09:20;101143.69;;;18.34;100.00
66164;BME280;52962;51.088;3.096;2022-08-19T00:11:49;101147.25;;;18.28;100.00
66164;BME280;52962;51.088;3.096;2022-08-19T00:14:17;101148.16;;;18.25;100.00
66164;BME280;52962;51.088;3.096;2022-08-19T00:16:46;101141.97;;;18.23;100.00
66164;BME280;52962;51.088;3.096;2022-08-19T00:19:15;101142.91;;;18.16;100.00
66164;BME280;52962;51.088;3.096;2022-08-19T00:21:44;101137.59;;;18.10;100.00
66164;BME280;52962;51.088;3.096;2022-08-19T00:24:14;101139.38;;;18.10;100.00
66164;BME280;52962;51.088;3.096;2022-08-19T00:26:44;101142.94;;;18.09;100.00
66164;BME280;52962;51.088;3.096;2022-08-19T00:29:14;101149.16;;;18.09;100.00
66164;BME280;52962;51.088;3.096;2022-08-19T00:31:43;101142.94;;;18.07;100.00
66164;BME280;52962;51.088;3.096;2022-08-19T00:34:13;101155.41;;;18.05;100.00
66164;BME280;52962;51.088;3.096;2022-08-19T00:36:42;101150.06;;;18.07;100.00
66164;BME280;52962;51.088;3.096;2022-08-19T00:39:11;101152.75;;;18.02;100.00
66164;BME280;52962;51.088;3.096;2022-08-19T00:41:41;101152.78;;;17.97;100.00
66164;BME280;52962;51.088;3.096;2022-08-19T00:44:12;101147.44;;;17.96;100.00
66164;BME280;52962;51.088;3.096;2022-08-19T00:46:43;101149.22;;;17.95;100.00
66164;BME280;52962;51.088;3.096;2022-08-19T00:49:27;101166.09;;;17.94;100.00
66164;BME280;52962;51.088;3.096;2022-08-19T00:52:02;101163.47;;;17.91;100.00
66164;BME280;52962;51.088;3.096;2022-08-19T00:54:31;101159.91;;;17.89;100.00
66164;BME280;52962;51.088;3.096;2022-08-19T00:57:02;101164.34;;;17.89;100.00
66164;BME280;52962;51.088;3.096;2022-08-19T00:59:34;101160.81;;;17.88;100.00
66164;BME280;52962;51.088;3.096;2022-08-19T01:02:23;101157.28;;;17.85;100.00
66164;BME280;52962;51.088;3.096;2022-08-19T01:04:52;101156.38;;;17.83;100.00
66164;BME280;52962;51.088;3.096;2022-08-19T01:07:20;101143.97;;;17.79;100.00
66164;BME280;52962;51.088;3.096;2022-08-19T01:09:49;101145.75;;;17.75;100.00
66164;BME280;52962;51.088;3.096;2022-08-19T01:12:18;101153.81;;;17.66;100.00
66164;BME280;52962;51.088;3.096;2022-08-19T01:14:47;101166.25;;;17.66;100.00
66164;BME280;52962;51.088;3.096;2022-08-19T01:17:16;101156.50;;;17.66;100.00
66164;BME280;52962;51.088;3.096;2022-08-19T01:19:46;101154.66;;;17.68;100.00
66164;BME280;52962;51.088;3.096;2022-08-19T01:22:19;101161.81;;;17.68;100.00
66164;BME280;52962;51.088;3.096;2022-08-19T01:25:00;101164.47;;;17.63;100.00
66164;BME280;52962;51.088;3.096;2022-08-19T01:27:37;101162.69;;;17.60;100.00
66164;BME280;52962;51.088;3.096;2022-08-19T01:30:13;101162.69;;;17.57;100.00
66164;BME280;52962;51.088;3.096;2022-08-19T01:32:41;101166.25;;;17.56;100.00
66164;BME280;52962;51.088;3.096;2022-08-19T01:35:11;101165.38;;;17.57;100.00
66164;BME280;52962;51.088;3.096;2022-08-19T01:37:44;101171.56;;;17.56;100.00
66164;BME280;52962;51.088;3.096;2022-08-19T01:40:14;101161.81;;;17.55;100.00
66164;BME280;52962;51.088;3.096;2022-08-19T01:42:42;101163.59;;;17.53;100.00
66164;BME280;52962;51.088;3.096;2022-08-19T01:45:10;101157.41;;;17.51;100.00
66164;BME280;52962;51.088;3.096;2022-08-19T01:47:39;101159.16;;;17.51;100.00
66164;BME280;52962;51.088;3.096;2022-08-19T01:50:09;101158.28;;;17.52;100.00
66164;BME280;52962;51.088;3.096;2022-08-19T01:52:38;101158.28;;;17.52;100.00
66164;BME280;52962;51.088;3.096;2022-08-19T01:55:10;101149.41;;;17.48;100.00
66164;BME280;52962;51.088;3.096;2022-08-19T01:57:42;101156.50;;;17.48;100.00
66164;BME280;52962;51.088;3.096;2022-08-19T02:00:15;101153.84;;;17.46;100.00
66164;BME280;52962;51.088;3.096;2022-08-19T02:02:44;101155.63;;;17.44;100.00
66164;BME280;52962;51.088;3.096;2022-08-19T02:05:12;101153.88;;;17.43;100.00
66164;BME280;52962;51.088;3.096;2022-08-19T02:07:40;101160.97;;;17.44;100.00
66164;BME280;52962;51.088;3.096;2022-08-19T02:10:13;101166.28;;;17.44;100.00
66164;BME280;52962;51.088;3.096;2022-08-19T02:12:44;101170.72;;;17.48;100.00
66164;BME280;52962;51.088;3.096;2022-08-19T02:15:13;101174.25;;;17.50;100.00
66164;BME280;52962;51.088;3.096;2022-08-19T02:17:42;101176.03;;;17.50;100.00
66164;BME280;52962;51.088;3.096;2022-08-19T02:20:11;101170.72;;;17.50;100.00
66164;BME280;52962;51.088;3.096;2022-08-19T02:22:40;101170.69;;;17.51;100.00
66164;BME280;52962;51.088;3.096;2022-08-19T02:25:09;101160.94;;;17.49;100.00
66164;BME280;52962;51.088;3.096;2022-08-19T02:27:38;101167.16;;;17.48;100.00
66164;BME280;52962;51.088;3.096;2022-08-19T02:30:10;101168.06;;;17.48;100.00
66164;BME280;52962;51.088;3.096;2022-08-19T02:32:40;101168.06;;;17.44;100.00
66164;BME280;52962;51.088;3.096;2022-08-19T02:35:11;101175.16;;;17.43;100.00
66164;BME280;52962;51.088;3.096;2022-08-19T02:37:40;101169.84;;;17.42;100.00
66164;BME280;52962;51.088;3.096;2022-08-19T02:40:25;101167.19;;;17.40;100.00
66164;BME280;52962;51.088;3.096;2022-08-19T02:42:53;101164.53;;;17.40;100.00
66164;BME280;52962;51.088;3.096;2022-08-19T02:45:23;101162.75;;;17.39;100.00
66164;BME280;52962;51.088;3.096;2022-08-19T02:47:53;101160.97;;;17.37;100.00
66164;BME280;52962;51.088;3.096;2022-08-19T02:50:23;101158.31;;;17.35;100.00
66164;BME280;52962;51.088;3.096;2022-08-19T02:52:51;101169.84;;;17.34;100.00
66164;BME280;52962;51.088;3.096;2022-08-19T02:55:19;101159.22;;;17.34;100.00
66164;BME280;52962;51.088;3.096;2022-08-19T02:57:48;101167.19;;;17.34;100.00
66164;BME280;52962;51.088;3.096;2022-08-19T03:00:16;101161.88;;;17.32;100.00
66164;BME280;52962;51.088;3.096;2022-08-19T03:02:46;101164.53;;;17.31;100.00
66164;BME280;52962;51.088;3.096;2022-08-19T03:05:15;101156.56;;;17.31;100.00
66164;BME280;52962;51.088;3.096;2022-08-19T03:07:54;101163.66;;;17.32;100.00
66164;BME280;52962;51.088;3.096;2022-08-19T03:10:22;101156.56;;;17.31;100.00
66164;BME280;52962;51.088;3.096;2022-08-19T03:12:50;101155.66;;;17.32;100.00
66164;BME280;52962;51.088;3.096;2022-08-19T03:15:17;101143.25;;;17.28;100.00
66164;BME280;52962;51.088;3.096;2022-08-19T03:17:47;101152.13;;;17.27;100.00
66164;BME280;52962;51.088;3.096;2022-08-19T03:20:15;101150.34;;;17.26;100.00
66164;BME280;52962;51.088;3.096;2022-08-19T03:22:43;101157.44;;;17.25;100.00
66164;BME280;52962;51.088;3.096;2022-08-19T03:25:11;101151.25;;;17.22;100.00
66164;BME280;52962;51.088;3.096;2022-08-19T03:27:39;101150.38;;;17.21;100.00
66164;BME280;52962;51.088;3.096;2022-08-19T03:30:07;101150.38;;;17.20;100.00
66164;BME280;52962;51.088;3.096;2022-08-19T03:32:37;101148.59;;;17.19;100.00
66164;BME280;52962;51.088;3.096;2022-08-19T03:35:12;101148.59;;;17.19;100.00
66164;BME280;52962;51.088;3.096;2022-08-19T03:37:40;101146.81;;;17.18;100.00
66164;BME280;52962;51.088;3.096;2022-08-19T03:40:09;101150.38;;;17.17;100.00
66164;BME280;52962;51.088;3.096;2022-08-19T03:42:42;101153.91;;;17.17;100.00
66164;BME280;52962;51.088;3.096;2022-08-19T03:45:15;101155.69;;;17.18;100.00
66164;BME280;52962;51.088;3.096;2022-08-19T03:47:43;101156.56;;;17.20;100.00
66164;BME280;52962;51.088;3.096;2022-08-19T03:53:17;101152.13;;;17.24;100.00
66164;BME280;52962;51.088;3.096;2022-08-19T03:55:45;101148.56;;;17.28;100.00
66164;BME280;52962;51.088;3.096;2022-08-19T03:58:13;101153.91;;;17.31;100.00
66164;BME280;52962;51.088;3.096;2022-08-19T04:00:42;101149.44;;;17.35;100.00
66164;BME280;52962;51.088;3.096;2022-08-19T04:03:10;101148.53;;;17.40;100.00
66164;BME280;52962;51.088;3.096;2022-08-19T04:05:38;101139.66;;;17.43;100.00
66164;BME280;52962;51.088;3.096;2022-08-19T04:08:06;101152.09;;;17.45;100.00
66164;BME280;52962;51.088;3.096;2022-08-19T04:10:40;101148.53;;;17.49;100.00
66164;BME280;52962;51.088;3.096;2022-08-19T04:13:09;101150.28;;;17.53;100.00
66164;BME280;52962;51.088;3.096;2022-08-19T04:15:39;101153.81;;;17.55;100.00
66164;BME280;52962;51.088;3.096;2022-08-19T04:18:09;101153.81;;;17.58;100.00
66164;BME280;52962;51.088;3.096;2022-08-19T04:20:42;101141.38;;;17.60;100.00
66164;BME280;52962;51.088;3.096;2022-08-19T04:23:10;101141.38;;;17.62;100.00
66164;BME280;52962;51.088;3.096;2022-08-19T04:25:41;101143.16;;;17.64;100.00
66164;BME280;52962;51.088;3.096;2022-08-19T04:28:12;101134.25;;;17.69;100.00
66164;BME280;52962;51.088;3.096;2022-08-19T04:30:42;101142.22;;;17.73;100.00
66164;BME280;52962;51.088;3.096;2022-08-19T04:33:12;101136.00;;;17.77;100.00
66164;BME280;52962;51.088;3.096;2022-08-19T04:35:43;101134.19;;;17.81;100.00
66164;BME280;52962;51.088;3.096;2022-08-19T04:38:11;101131.53;;;17.84;100.00
66164;BME280;52962;51.088;3.096;2022-08-19T04:40:42;101140.38;;;17.89;100.00
66164;BME280;52962;51.088;3.096;2022-08-19T04:43:44;101147.47;;;17.91;100.00
66164;BME280;52962;51.088;3.096;2022-08-19T04:46:15;101150.13;;;17.94;100.00
66164;BME280;52962;51.088;3.096;2022-08-19T04:49:04;101154.53;;;17.98;100.00
66164;BME280;52962;51.088;3.096;2022-08-19T04:51:43;101153.63;;;18.04;100.00
66164;BME280;52962;51.088;3.096;2022-08-19T04:54:13;101152.69;;;18.10;100.00
66164;BME280;52962;51.088;3.096;2022-08-19T04:56:57;101161.56;;;18.16;100.00
66164;BME280;52962;51.088;3.096;2022-08-19T04:59:25;101153.53;;;18.22;100.00
66164;BME280;52962;51.088;3.096;2022-08-19T05:01:53;101158.81;;;18.28;100.00
66164;BME280;52962;51.088;3.096;2022-08-19T05:04:21;101152.56;;;18.34;100.00
66164;BME280;52962;51.088;3.096;2022-08-19T05:06:49;101166.75;;;18.38;100.00
66164;BME280;52962;51.088;3.096;2022-08-19T05:09:24;101156.94;;;18.43;100.00
66164;BME280;52962;51.088;3.096;2022-08-19T05:11:53;101163.13;;;18.48;100.00
66164;BME280;52962;51.088;3.096;2022-08-19T05:17:44;101163.06;;;18.65;100.00
66164;BME280;52962;51.088;3.096;2022-08-19T05:20:32;101164.78;;;18.70;100.00
66164;BME280;52962;51.088;3.096;2022-08-19T05:23:18;101159.38;;;18.73;100.00
66164;BME280;52962;51.088;3.096;2022-08-19T05:25:49;101157.59;;;18.75;100.00
66164;BME280;52962;51.088;3.096;2022-08-19T05:28:18;101157.56;;;18.78;100.00
66164;BME280;52962;51.088;3.096;2022-08-19T05:30:47;101161.09;;;18.83;100.00
66164;BME280;52962;51.088;3.096;2022-08-19T05:33:20;101157.50;;;18.87;100.00
66164;BME280;52962;51.088;3.096;2022-08-19T05:35:50;101149.50;;;18.87;100.00
66164;BME280;52962;51.088;3.096;2022-08-19T05:38:19;101145.91;;;18.88;100.00
66164;BME280;52962;51.088;3.096;2022-08-19T05:40:47;101156.59;;;18.90;100.00
66164;BME280;52962;51.088;3.096;2022-08-19T05:43:16;101158.34;;;18.92;100.00
66164;BME280;52962;51.088;3.096;2022-08-19T05:45:44;101160.09;;;18.97;100.00
66164;BME280;52962;51.088;3.096;2022-08-19T05:48:12;101170.72;;;19.00;100.00
66164;BME280;52962;51.088;3.096;2022-08-19T05:50:41;101166.25;;;19.02;100.00
66164;BME280;52962;51.088;3.096;2022-08-19T05:53:11;101171.53;;;19.08;100.00
66164;BME280;52962;51.088;3.096;2022-08-19T05:55:39;101173.25;;;19.15;100.00
66164;BME280;52962;51.088;3.096;2022-08-19T05:58:07;101177.66;;;19.22;100.00
66164;BME280;52962;51.088;3.096;2022-08-19T06:00:36;101181.16;;;19.27;100.00
66164;BME280;52962;51.088;3.096;2022-08-19T06:03:04;101180.25;;;19.28;100.00
66164;BME280;52962;51.088;3.096;2022-08-19T06:05:38;101177.59;;;19.25;100.00
66164;BME280;52962;51.088;3.096;2022-08-19T06:08:19;101181.19;;;19.24;100.00
66164;BME280;52962;51.088;3.096;2022-08-19T06:11:18;101187.41;;;19.24;100.00
66164;BME280;52962;51.088;3.096;2022-08-19T06:13:48;101180.28;;;19.25;100.00
66164;BME280;52962;51.088;3.096;2022-08-19T06:16:25;101175.81;;;19.27;100.00
66164;BME280;52962;51.088;3.096;2022-08-19T06:19:00;101190.00;;;19.32;100.00
66164;BME280;52962;51.088;3.096;2022-08-19T06:21:29;101185.56;;;19.31;100.00
66164;BME280;52962;51.088;3.096;2022-08-19T06:23:59;101181.09;;;19.33;100.00
66164;BME280;52962;51.088;3.096;2022-08-19T06:26:27;101182.84;;;19.36;100.00
66164;BME280;52962;51.088;3.096;2022-08-19T06:28:56;101183.69;;;19.39;100.00
66164;BME280;52962;51.088;3.096;2022-08-19T06:31:26;101175.69;;;19.39;100.00
66164;BME280;52962;51.088;3.096;2022-08-19T06:33:55;101186.34;;;19.42;100.00
66164;BME280;52962;51.088;3.096;2022-08-19T06:36:25;101182.72;;;19.46;100.00
66164;BME280;52962;51.088;3.096;2022-08-19T06:38:58;101182.69;;;19.49;100.00
66164;BME280;52962;51.088;3.096;2022-08-19T06:41:27;101185.38;;;19.52;100.00
66164;BME280;52962;51.088;3.096;2022-08-19T06:43:55;101179.09;;;19.55;100.00
66164;BME280;52962;51.088;3.096;2022-08-19T06:46:24;101182.63;;;19.58;100.00
66164;BME280;52962;51.088;3.096;2022-08-19T06:48:53;101181.69;;;19.63;100.00
66164;BME280;52962;51.088;3.096;2022-08-19T06:51:22;101187.00;;;19.66;100.00
66164;BME280;52962;51.088;3.096;2022-08-19T06:53:58;101189.66;;;19.69;100.00
66164;BME280;52962;51.088;3.096;2022-08-19T06:56:30;101181.56;;;19.73;100.00
66164;BME280;52962;51.088;3.096;2022-08-19T06:59:02;101186.84;;;19.78;100.00
66164;BME280;52962;51.088;3.096;2022-08-19T07:01:35;101185.00;;;19.81;100.00
66164;BME280;52962;51.088;3.096;2022-08-19T07:04:05;101189.38;;;19.87;100.00
66164;BME280;52962;51.088;3.096;2022-08-19T07:06:37;101182.19;;;19.92;100.00
66164;BME280;52962;51.088;3.096;2022-08-19T07:09:12;101191.00;;;20.00;100.00
66164;BME280;52962;51.088;3.096;2022-08-19T07:11:45;101182.94;;;20.03;100.00
66164;BME280;52962;51.088;3.096;2022-08-19T07:14:13;101190.94;;;20.06;100.00
66164;BME280;52962;51.088;3.096;2022-08-19T07:16:46;101202.50;;;20.07;100.00
66164;BME280;52962;51.088;3.096;2022-08-19T07:19:16;101197.16;;;20.07;100.00
66164;BME280;52962;51.088;3.096;2022-08-19T07:21:45;101195.38;;;20.07;100.00
66164;BME280;52962;51.088;3.096;2022-08-19T07:24:16;101199.84;;;20.07;100.00
66164;BME280;52962;51.088;3.096;2022-08-19T07:26:45;101193.53;;;20.11;100.00
66164;BME280;52962;51.088;3.096;2022-08-19T07:29:18;101195.28;;;20.13;100.00
66164;BME280;52962;51.088;3.096;2022-08-19T07:31:50;101189.00;;;20.17;100.00
66164;BME280;52962;51.088;3.096;2022-08-19T07:34:19;101196.06;;;20.21;100.00
66164;BME280;52962;51.088;3.096;2022-08-19T07:36:47;101188.09;;;20.18;100.00
66164;BME280;52962;51.088;3.096;2022-08-19T07:39:22;101195.19;;;20.21;100.00
66164;BME280;52962;51.088;3.096;2022-08-19T07:41:51;101192.50;;;20.22;100.00
66164;BME280;52962;51.088;3.096;2022-08-19T07:44:19;101199.63;;;20.23;100.00
66164;BME280;52962;51.088;3.096;2022-08-19T07:46:50;101188.91;;;20.25;100.00
66164;BME280;52962;51.088;3.096;2022-08-19T07:49:19;101198.66;;;20.28;100.00
66164;BME280;52962;51.088;3.096;2022-08-19T07:51:49;101197.69;;;20.35;100.00
66164;BME280;52962;51.088;3.096;2022-08-19T07:54:21;101190.47;;;20.43;100.00
66164;BME280;52962;51.088;3.096;2022-08-19T07:56:50;101190.38;;;20.49;100.00
66164;BME280;52962;51.088;3.096;2022-08-19T07:59:20;101192.94;;;20.56;100.00
66164;BME280;52962;51.088;3.096;2022-08-19T08:04:18;101199.13;;;20.60;100.00
66164;BME280;52962;51.088;3.096;2022-08-19T08:07:04;101206.19;;;20.64;100.00
66164;BME280;52962;51.088;3.096;2022-08-19T08:09:58;101207.66;;;20.83;100.00
66164;BME280;52962;51.088;3.096;2022-08-19T08:12:34;101199.34;;;21.00;100.00
66164;BME280;52962;51.088;3.096;2022-08-19T08:15:09;101190.06;;;21.19;100.00
66164;BME280;52962;51.088;3.096;2022-08-19T08:17:38;101196.03;;;21.38;100.00
66164;BME280;52962;51.088;3.096;2022-08-19T08:20:18;101189.59;;;21.47;100.00
66164;BME280;52962;51.088;3.096;2022-08-19T08:22:47;101193.97;;;21.52;100.00
66164;BME280;52962;51.088;3.096;2022-08-19T08:25:36;101193.91;;;21.56;100.00
66164;BME280;52962;51.088;3.096;2022-08-19T08:28:04;101204.63;;;21.56;100.00
66164;BME280;52962;51.088;3.096;2022-08-19T08:30:37;101202.00;;;21.52;100.00
66164;BME280;52962;51.088;3.096;2022-08-19T08:33:11;101200.19;;;21.54;100.00
66164;BME280;52962;51.088;3.096;2022-08-19T08:35:40;101205.59;;;21.51;100.00
66164;BME280;52962;51.088;3.096;2022-08-19T08:38:09;101208.28;;;21.51;100.00
66164;BME280;52962;51.088;3.096;2022-08-19T08:40:44;101205.66;;;21.48;100.00
66164;BME280;52962;51.088;3.096;2022-08-19T08:43:22;101201.09;;;21.53;100.00
66164;BME280;52962;51.088;3.096;2022-08-19T08:46:02;101195.56;;;21.63;100.00
66164;BME280;52962;51.088;3.096;2022-08-19T08:48:38;101200.72;;;21.72;100.00
66164;BME280;52962;51.088;3.096;2022-08-19T08:51:14;101210.38;;;21.82;100.00
66164;BME280;52962;51.088;3.096;2022-08-19T08:53:47;101210.97;;;21.95;100.00
66164;BME280;52962;51.088;3.096;2022-08-19T08:56:23;101208.94;;;22.07;100.00
66164;BME280;52962;51.088;3.096;2022-08-19T08:58:57;101201.41;;;22.25;100.00
66164;BME280;52962;51.088;3.096;2022-08-19T09:01:26;101202.97;;;22.35;100.00
66164;BME280;52962;51.088;3.096;2022-08-19T09:03:56;101201.22;;;22.34;100.00
66164;BME280;52962;51.088;3.096;2022-08-19T09:06:36;101205.66;;;22.35;100.00
66164;BME280;52962;51.088;3.096;2022-08-19T09:09:14;101202.97;;;22.35;100.00
66164;BME280;52962;51.088;3.096;2022-08-19T09:11:49;101205.78;;;22.29;100.00
66164;BME280;52962;51.088;3.096;2022-08-19T09:14:31;101205.22;;;22.14;100.00
66164;BME280;52962;51.088;3.096;2022-08-19T09:17:20;101211.72;;;22.03;100.00
66164;BME280;52962;51.088;3.096;2022-08-19T09:19:57;101217.19;;;21.97;100.00
66164;BME280;52962;51.088;3.096;2022-08-19T09:22:27;101218.06;;;21.97;100.00
66164;BME280;52962;51.088;3.096;2022-08-19T09:24:55;101216.25;;;21.98;100.00
66164;BME280;52962;51.088;3.096;2022-08-19T09:27:26;101221.59;;;21.99;100.00
66164;BME280;52962;51.088;3.096;2022-08-19T09:30:13;101218.75;;;22.08;100.00
66164;BME280;52962;51.088;3.096;2022-08-19T09:32:42;101219.34;;;22.23;100.00
66164;BME280;52962;51.088;3.096;2022-08-19T09:35:12;101215.53;;;22.33;100.00
66164;BME280;52962;51.088;3.096;2022-08-19T09:37:42;101213.66;;;22.38;100.00
66164;BME280;52962;51.088;3.096;2022-08-19T09:40:11;101224.31;;;22.41;100.00
66164;BME280;52962;51.088;3.096;2022-08-19T09:42:43;101220.78;;;22.39;100.00
66164;BME280;52962;51.088;3.096;2022-08-19T09:45:18;101217.09;;;22.43;100.00
66164;BME280;52962;51.088;3.096;2022-08-19T09:47:48;101218.66;;;22.53;100.00
66164;BME280;52962;51.088;3.096;2022-08-19T09:50:21;101214.72;;;22.69;100.00
66164;BME280;52962;51.088;3.096;2022-08-19T09:52:50;101215.22;;;22.87;100.00
66164;BME280;52962;51.088;3.096;2022-08-19T09:55:24;101218.44;;;22.99;100.00
66164;BME280;52962;51.088;3.096;2022-08-19T09:58:00;101220.25;;;22.99;100.00
66164;BME280;52962;51.088;3.096;2022-08-19T10:00:29;101217.66;;;22.96;100.00
66164;BME280;52962;51.088;3.096;2022-08-19T10:02:58;101221.41;;;22.89;100.00
66164;BME280;52962;51.088;3.096;2022-08-19T10:05:26;101216.72;;;22.97;100.00
66164;BME280;52962;51.088;3.096;2022-08-19T10:08:15;101208.28;;;23.12;100.00
66164;BME280;52962;51.088;3.096;2022-08-19T10:10:46;101213.56;;;23.15;100.00
66164;BME280;52962;51.088;3.096;2022-08-19T10:13:19;101213.66;;;23.12;100.00
66164;BME280;52962;51.088;3.096;2022-08-19T10:15:51;101222.78;;;23.05;100.00
66164;BME280;52962;51.088;3.096;2022-08-19T10:18:22;101222.94;;;22.99;100.00
66164;BME280;52962;51.088;3.096;2022-08-19T10:20:52;101218.53;;;22.96;100.00
66164;BME280;52962;51.088;3.096;2022-08-19T10:26:39;101217.00;;;23.22;100.00
66164;BME280;52962;51.088;3.096;2022-08-19T10:29:13;101208.59;;;23.34;100.00
66164;BME280;52962;51.088;3.096;2022-08-19T10:31:59;101220.25;;;23.34;100.00
66164;BME280;52962;51.088;3.096;2022-08-19T10:34:29;101221.81;;;23.43;100.00
66164;BME280;52962;51.088;3.096;2022-08-19T10:36:58;101214.19;;;23.60;100.00
66164;BME280;52962;51.088;3.096;2022-08-19T10:39:28;101214.63;;;23.77;100.00
66164;BME280;52962;51.088;3.096;2022-08-19T10:42:09;101210.03;;;23.81;100.00
66164;BME280;52962;51.088;3.096;2022-08-19T10:44:41;101203.56;;;23.88;100.00
66164;BME280;52962;51.088;3.096;2022-08-19T10:47:10;101202.41;;;23.95;100.00
66164;BME280;52962;51.088;3.096;2022-08-19T10:49:51;101198.66;;;24.01;100.00
66164;BME280;52962;51.088;3.096;2022-08-19T10:52:38;101203.81;;;24.08;100.00
66164;BME280;52962;51.088;3.096;2022-08-19T10:55:16;101200.47;;;24.00;100.00
66164;BME280;52962;51.088;3.096;2022-08-19T10:58:02;101199.75;;;23.94;100.00
66164;BME280;52962;51.088;3.096;2022-08-19T11:00:32;101202.88;;;23.80;100.00
66164;BME280;52962;51.088;3.096;2022-08-19T11:03:00;101208.44;;;23.74;100.00
66164;BME280;52962;51.088;3.096;2022-08-19T11:05:28;101204.78;;;23.76;100.00
66164;BME280;52962;51.088;3.096;2022-08-19T11:08:06;101194.94;;;23.75;100.00
66164;BME280;52962;51.088;3.096;2022-08-19T11:10:49;101191.47;;;24.01;100.00
66164;BME280;52962;51.088;3.096;2022-08-19T11:13:17;101194.63;;;24.16;100.00
66164;BME280;52962;51.088;3.096;2022-08-19T11:15:47;101190.50;;;24.35;100.00
66164;BME280;52962;51.088;3.096;2022-08-19T11:18:23;101188.53;;;24.40;100.00
66164;BME280;52962;51.088;3.096;2022-08-19T11:20:52;101190.78;;;24.26;100.00
66164;BME280;52962;51.088;3.096;2022-08-19T11:23:20;101196.94;;;24.29;100.00
66164;BME280;52962;51.088;3.096;2022-08-19T11:25:49;101193.09;;;24.38;100.00
66164;BME280;52962;51.088;3.096;2022-08-19T11:28:17;101195.25;;;24.55;100.00
66164;BME280;52962;51.088;3.096;2022-08-19T11:30:47;101199.50;;;24.62;100.00
66164;BME280;52962;51.088;3.096;2022-08-19T11:33:15;101191.00;;;24.75;100.00
66164;BME280;52962;51.088;3.096;2022-08-19T11:35:43;101187.00;;;24.87;100.00
66164;BME280;52962;51.088;3.096;2022-08-19T11:38:11;101197.22;;;25.04;100.00
66164;BME280;52962;51.088;3.096;2022-08-19T11:40:41;101194.09;;;25.16;100.00
66164;BME280;52962;51.088;3.096;2022-08-19T11:43:09;101183.53;;;25.10;100.00
66164;BME280;52962;51.088;3.096;2022-08-19T11:45:38;101187.94;;;24.86;100.00
66164;BME280;52962;51.088;3.096;2022-08-19T11:48:08;101198.00;;;24.53;100.00
66164;BME280;52962;51.088;3.096;2022-08-19T11:50:36;101214.31;;;24.18;100.00
66164;BME280;52962;51.088;3.096;2022-08-19T11:53:11;101246.63;;;23.53;100.00
66164;BME280;52962;51.088;3.096;2022-08-19T11:55:39;101244.66;;;22.90;100.00
66164;BME280;52962;51.088;3.096;2022-08-19T11:58:10;101258.22;;;22.45;100.00
66164;BME280;52962;51.088;3.096;2022-08-19T12:00:44;101265.25;;;22.09;100.00
66164;BME280;52962;51.088;3.096;2022-08-19T12:03:14;101269.78;;;22.05;100.00
66164;BME280;52962;51.088;3.096;2022-08-19T12:05:42;101262.75;;;21.97;100.00
66164;BME280;52962;51.088;3.096;2022-08-19T12:08:12;101268.09;;;21.98;100.00
66164;BME280;52962;51.088;3.096;2022-08-19T12:10:42;101277.22;;;21.88;100.00
66164;BME280;52962;51.088;3.096;2022-08-19T12:13:12;101263.34;;;21.69;100.00
66164;BME280;52962;51.088;3.096;2022-08-19T12:15:46;101267.16;;;21.54;100.00
66164;BME280;52962;51.088;3.096;2022-08-19T12:18:16;101269.25;;;21.37;100.00
66164;BME280;52962;51.088;3.096;2022-08-19T12:20:44;101270.94;;;21.44;100.00
66164;BME280;52962;51.088;3.096;2022-08-19T12:23:14;101269.00;;;21.52;100.00
66164;BME280;52962;51.088;3.096;2022-08-19T12:25:45;101265.22;;;21.64;100.00
66164;BME280;52962;51.088;3.096;2022-08-19T12:28:19;101270.50;;;21.67;100.00
66164;BME280;52962;51.088;3.096;2022-08-19T12:30:48;101264.25;;;21.68;100.00
66164;BME280;52962;51.088;3.096;2022-08-19T12:33:18;101253.56;;;21.67;100.00
66164;BME280;52962;51.088;3.096;2022-08-19T12:35:51;101256.56;;;21.93;100.00
66164;BME280;52962;51.088;3.096;2022-08-19T12:38:20;101244.47;;;22.18;100.00
66164;BME280;52962;51.088;3.096;2022-08-19T12:40:51;101242.03;;;22.48;100.00
66164;BME280;52962;51.088;3.096;2022-08-19T12:43:25;101235.56;;;22.58;100.00
66164;BME280;52962;51.088;3.096;2022-08-19T12:45:53;101238.03;;;22.67;100.00
66164;BME280;52962;51.088;3.096;2022-08-19T12:48:23;101238.66;;;22.78;100.00
66164;BME280;52962;51.088;3.096;2022-08-19T12:51:01;101241.34;;;22.80;100.00
66164;BME280;52962;51.088;3.096;2022-08-19T12:53:33;101239.78;;;22.68;100.00
66164;BME280;52962;51.088;3.096;2022-08-19T12:56:05;101237.25;;;22.62;100.00
66164;BME280;52962;51.088;3.096;2022-08-19T12:58:38;101242.63;;;22.62;100.00
66164;BME280;52962;51.088;3.096;2022-08-19T13:01:07;101243.38;;;22.67;100.00
66164;BME280;52962;51.088;3.096;2022-08-19T13:03:37;101244.44;;;22.60;100.00
66164;BME280;52962;51.088;3.096;2022-08-19T13:06:07;101237.56;;;22.48;100.00
66164;BME280;52962;51.088;3.096;2022-08-19T13:08:38;101233.03;;;22.50;100.00
66164;BME280;52962;51.088;3.096;2022-08-19T13:11:10;101233.28;;;22.78;100.00
66164;BME280;52962;51.088;3.096;2022-08-19T13:13:40;101232.66;;;23.04;100.00
66164;BME280;52962;51.088;3.096;2022-08-19T13:16:09;101231.31;;;23.22;100.00